< Typhoon 198508 1985 Season Typhoon 198510 >
Typhoon 198509 (LEE)
General InformationTrack Information on Google MapsDetailed Wind InformationList of All Images || Disaster Info.ResourceGoogle EarthGE AnimationAtom FeedGeoJSON
Detalied Best Track (Time Zone = UTC)
Year Month Day Hour Lat. Long. Pressure (hPa) Wind (kt) Class Image Chart
1985 8 9 12 21.0 131.0 1000 0 2 Image Chart
1985 8 9 18 22.0 131.0 1000 0 2 Image Chart
1985 8 10 00 23.0 131.0 998 0 2 Image Chart
1985 8 10 06 23.5 131.0 996 0 2 Image Chart
1985 8 10 12 23.5 131.5 996 0 2 Image Chart
1985 8 10 18 23.0 131.5 996 0 2 Image Chart
1985 8 11 00 22.7 131.0 996 0 2 Image Chart
1985 8 11 06 23.0 130.5 992 0 2 Image Chart
1985 8 11 12 23.5 130.0 992 0 2 Image Chart
1985 8 11 18 24.2 129.5 990 35 3 Image Chart
1985 8 12 00 25.0 129.0 990 45 3 Image Chart
1985 8 12 06 26.2 128.5 990 45 3 Image Chart
1985 8 12 12 27.4 127.9 985 50 4 Image Chart
1985 8 12 18 28.4 127.4 980 60 4 Image Chart
1985 8 13 00 29.4 126.6 975 60 4 Image Chart
1985 8 13 06 30.9 125.1 980 60 4 Image Chart
1985 8 13 12 32.6 124.0 980 60 4 Image Chart
1985 8 13 18 34.2 124.0 980 60 4 Image Chart
1985 8 14 00 36.3 124.7 985 50 4 Image Chart
1985 8 14 06 39.0 125.5 985 45 3 Image Chart
1985 8 14 12 42.5 127.0 986 0 6 Image Chart
1985 8 14 18 45.0 128.0 984 0 6 Image Chart
1985 8 15 00 48.0 128.0 984 0 6 Image Chart
1985 8 15 06 49.0 130.0 986 0 6 Image Chart
1985 8 15 12 49.0 131.0 986 0 6 Image Chart
1985 8 15 18 51.0 131.0 990 0 6 Image Chart
1985 8 16 00 51.0 132.0 996 0 6 Image Chart
1985 8 16 06 52.0 132.0 1000 0 6 Image Chart
1985 8 16 12 52.0 131.0 1004 0 6 Image Chart
Japan Meteorological Agency Best Track Data | Correction Date : 1993-07-13
< Typhoon 198508 1985 Season Typhoon 198510 >

Help